createdAt,value
2022-09-17T00:01:48.220Z,9.00
2022-09-17T00:04:50.215Z,8.70
2022-09-17T00:07:52.352Z,8.00
2022-09-17T00:10:54.221Z,8.30
2022-09-17T00:13:58.716Z,8.60
2022-09-17T00:17:02.047Z,8.20
2022-09-17T00:20:05.467Z,8.20
2022-09-17T00:23:08.238Z,7.90
2022-09-17T00:26:10.073Z,8.80
2022-09-17T00:29:12.126Z,8.00
2022-09-17T00:32:13.918Z,9.20
2022-09-17T00:35:15.865Z,8.50
2022-09-17T00:38:17.594Z,8.30
2022-09-17T00:41:20.592Z,9.10
2022-09-17T00:44:42.882Z,8.70
2022-09-17T00:48:01.137Z,9.60
2022-09-17T00:51:04.563Z,9.60
2022-09-17T00:54:08.430Z,9.10
2022-09-17T00:57:10.330Z,9.20
2022-09-17T01:00:14.915Z,8.80
2022-09-17T01:03:17.338Z,8.50
2022-09-17T01:06:54.125Z,9.10
2022-09-17T01:10:01.397Z,9.50
2022-09-17T01:13:18.518Z,9.40
2022-09-17T01:16:42.463Z,9.50
2022-09-17T01:20:17.861Z,9.70
2022-09-17T01:23:30.714Z,10.60
2022-09-17T01:27:03.649Z,10.50
2022-09-17T01:30:32.662Z,11.40
2022-09-17T01:33:38.301Z,11.70
2022-09-17T01:37:04.145Z,11.50
2022-09-17T01:40:20.259Z,10.60
2022-09-17T01:43:30.537Z,9.60
2022-09-17T01:46:37.095Z,9.00
2022-09-17T01:49:40.294Z,9.60
2022-09-17T01:52:44.689Z,11.80
2022-09-17T01:55:46.841Z,13.20
2022-09-17T01:58:53.882Z,12.90
2022-09-17T02:02:02.162Z,11.70
2022-09-17T02:05:16.974Z,10.50
2022-09-17T02:08:24.396Z,7.70
2022-09-17T02:11:26.335Z,7.90
2022-09-17T02:14:33.706Z,8.30
2022-09-17T02:17:40.529Z,7.80
2022-09-17T02:20:46.786Z,7.80
2022-09-17T02:24:04.226Z,8.60
2022-09-17T02:27:32.741Z,7.90
2022-09-17T02:30:34.679Z,8.20
2022-09-17T02:33:38.231Z,8.70
2022-09-17T02:36:40.300Z,8.40
2022-09-17T02:39:42.617Z,9.40
2022-09-17T02:43:06.458Z,9.70
2022-09-17T02:46:37.457Z,9.80
2022-09-17T02:49:50.257Z,12.20
2022-09-17T02:53:02.137Z,12.00
2022-09-17T02:56:27.259Z,11.50
2022-09-17T02:59:56.059Z,12.80
2022-09-17T03:03:01.158Z,13.90
2022-09-17T03:06:03.066Z,14.80
2022-09-17T03:09:04.861Z,14.00
2022-09-17T03:12:06.813Z,14.30
2022-09-17T03:15:09.098Z,14.20
2022-09-17T03:18:10.986Z,13.30
2022-09-17T03:21:12.856Z,13.20
2022-09-17T03:24:14.655Z,12.00
2022-09-17T03:27:16.519Z,12.80
2022-09-17T03:30:19.051Z,13.30
2022-09-17T03:33:21.081Z,15.40
2022-09-17T03:36:22.875Z,13.00
2022-09-17T03:39:24.718Z,12.80
2022-09-17T03:42:26.565Z,14.00
2022-09-17T03:45:28.333Z,13.30
2022-09-17T03:48:30.548Z,12.60
2022-09-17T03:51:32.699Z,11.70
2022-09-17T03:54:34.479Z,11.20
2022-09-17T03:57:36.339Z,11.40
2022-09-17T04:00:38.274Z,10.40
2022-09-17T04:03:40.130Z,10.70
2022-09-17T04:06:41.894Z,10.70
2022-09-17T04:09:43.790Z,10.70
2022-09-17T04:12:45.707Z,11.80
2022-09-17T04:15:48.148Z,11.20
2022-09-17T04:18:49.959Z,10.60
2022-09-17T04:21:53.118Z,11.40
2022-09-17T04:24:55.154Z,11.80
2022-09-17T04:27:56.926Z,12.20
2022-09-17T04:30:58.969Z,10.50
2022-09-17T04:34:00.745Z,9.80
2022-09-17T04:37:03.827Z,8.50
2022-09-17T04:40:08.040Z,7.50
2022-09-17T04:43:11.058Z,11.10
2022-09-17T04:46:14.372Z,10.30
2022-09-17T04:49:16.273Z,9.40
2022-09-17T04:52:18.304Z,9.40
2022-09-17T04:55:20.233Z,8.10
2022-09-17T04:58:22.111Z,8.80
2022-09-17T05:01:23.976Z,7.00
2022-09-17T05:04:25.958Z,7.40
2022-09-17T05:07:27.830Z,7.40
2022-09-17T05:10:29.609Z,8.80
2022-09-17T05:13:31.376Z,9.90
2022-09-17T05:16:33.565Z,9.70
2022-09-17T05:19:35.469Z,8.90
2022-09-17T05:22:41.993Z,9.20
2022-09-17T05:25:44.062Z,9.50
2022-09-17T05:28:45.918Z,9.00
2022-09-17T05:31:47.827Z,8.70
2022-09-17T05:34:50.319Z,8.20
2022-09-17T05:37:52.145Z,8.50
2022-09-17T05:40:53.950Z,7.80
2022-09-17T05:43:55.693Z,8.50
2022-09-17T05:46:57.547Z,7.80
2022-09-17T05:49:59.862Z,6.60
2022-09-17T05:53:06.279Z,7.00
2022-09-17T05:56:08.293Z,7.30
2022-09-17T05:59:10.143Z,7.50
2022-09-17T06:02:14.948Z,7.50
2022-09-17T06:05:17.484Z,7.80
2022-09-17T06:08:19.264Z,7.50
2022-09-17T06:11:21.099Z,7.10
2022-09-17T06:14:22.793Z,7.60
2022-09-17T06:17:24.491Z,7.40
2022-09-17T06:20:26.318Z,7.00
2022-09-17T06:23:31.484Z,7.30
2022-09-17T06:26:33.355Z,6.80
2022-09-17T06:29:35.115Z,7.20
2022-09-17T06:32:36.875Z,6.60
2022-09-17T06:35:38.625Z,7.10
2022-09-17T06:38:40.572Z,6.50
2022-09-17T06:41:43.436Z,6.20
2022-09-17T06:44:45.226Z,6.20
2022-09-17T06:47:46.963Z,6.20
2022-09-17T06:50:49.223Z,6.30
2022-09-17T06:53:51.087Z,6.30
2022-09-17T06:56:52.809Z,6.10
2022-09-17T06:59:54.762Z,6.10
2022-09-17T07:02:58.249Z,6.10
2022-09-17T07:06:00.214Z,5.60
2022-09-17T07:09:02.863Z,5.90
2022-09-17T07:12:08.395Z,6.10
2022-09-17T07:15:11.558Z,6.20
2022-09-17T07:18:13.430Z,5.60
2022-09-17T07:21:15.124Z,5.70
2022-09-17T07:24:16.956Z,5.50
2022-09-17T07:27:18.763Z,4.70
2022-09-17T07:30:21.047Z,5.10
2022-09-17T07:33:25.619Z,5.10
2022-09-17T07:36:27.946Z,4.90
2022-09-17T07:39:29.690Z,5.00
2022-09-17T07:42:33.149Z,4.70
2022-09-17T07:45:35.035Z,4.50
2022-09-17T07:48:36.918Z,4.40
2022-09-17T07:51:40.441Z,4.50
2022-09-17T07:54:42.642Z,4.30
2022-09-17T07:57:44.520Z,4.10
2022-09-17T08:00:46.440Z,4.60
2022-09-17T08:03:53.021Z,4.30
2022-09-17T08:06:54.859Z,4.50
2022-09-17T08:09:57.066Z,4.40
2022-09-17T08:12:59.204Z,4.60
2022-09-17T08:16:02.569Z,4.50
2022-09-17T08:19:04.322Z,5.10
2022-09-17T08:22:06.098Z,4.20
2022-09-17T08:25:09.170Z,4.50
2022-09-17T08:28:11.441Z,4.30
2022-09-17T08:31:14.327Z,4.20
2022-09-17T08:34:16.511Z,4.40
2022-09-17T08:37:18.267Z,4.60
2022-09-17T08:40:22.579Z,3.90
2022-09-17T08:43:25.717Z,4.30
2022-09-17T08:46:28.985Z,4.30
2022-09-17T08:49:37.431Z,3.70
2022-09-17T08:52:54.916Z,3.90
2022-09-17T08:56:11.319Z,4.50
2022-09-17T08:59:28.414Z,4.60
2022-09-17T09:02:44.101Z,4.70
2022-09-17T09:05:52.650Z,4.90
2022-09-17T09:09:04.031Z,4.30
2022-09-17T09:12:26.957Z,4.80
2022-09-17T09:15:33.092Z,4.40
2022-09-17T09:18:37.915Z,5.00
2022-09-17T09:21:45.683Z,5.20
2022-09-17T09:25:13.288Z,4.90
2022-09-17T09:28:23.322Z,4.10
2022-09-17T09:31:39.872Z,4.50
2022-09-17T09:34:41.850Z,4.10
2022-09-17T09:37:50.727Z,4.00
2022-09-17T09:41:00.937Z,4.30
2022-09-17T09:44:10.672Z,4.40
2022-09-17T09:47:27.196Z,4.20
2022-09-17T09:51:01.722Z,4.80
2022-09-17T09:54:37.146Z,4.60
2022-09-17T09:57:47.718Z,3.90
2022-09-17T10:00:49.579Z,4.00
2022-09-17T10:03:52.845Z,4.70
2022-09-17T10:07:20.789Z,4.20
2022-09-17T10:10:23.094Z,4.10
2022-09-17T10:13:25.301Z,4.50
2022-09-17T10:16:29.489Z,3.40
2022-09-17T10:19:31.363Z,3.80
2022-09-17T10:22:44.910Z,3.80
2022-09-17T10:25:47.698Z,3.80
2022-09-17T10:29:11.695Z,3.70
2022-09-17T10:32:18.198Z,3.70
2022-09-17T10:35:19.966Z,3.50
2022-09-17T10:38:37.031Z,3.60
2022-09-17T10:41:56.679Z,3.10
2022-09-17T10:45:01.021Z,3.40
2022-09-17T10:48:02.952Z,3.20
2022-09-17T10:51:06.873Z,3.10
2022-09-17T10:54:14.786Z,3.30
2022-09-17T10:57:36.622Z,3.30
2022-09-17T11:01:09.526Z,3.70
2022-09-17T11:04:25.056Z,3.40
2022-09-17T11:07:47.264Z,3.90
2022-09-17T11:10:59.939Z,3.80
2022-09-17T11:14:41.563Z,3.20
2022-09-17T11:18:04.890Z,3.40
2022-09-17T11:21:14.449Z,3.40
2022-09-17T11:24:26.034Z,3.00
2022-09-17T11:27:48.738Z,3.30
2022-09-17T11:31:24.229Z,3.60
2022-09-17T11:34:53.954Z,3.40
2022-09-17T11:38:11.199Z,3.50
2022-09-17T11:41:14.600Z,3.50
2022-09-17T11:44:33.357Z,3.20
2022-09-17T11:47:39.314Z,3.70
2022-09-17T11:50:46.814Z,3.40
2022-09-17T11:54:03.730Z,3.50
2022-09-17T11:57:35.761Z,3.60
2022-09-17T12:00:43.261Z,3.50
2022-09-17T12:04:01.875Z,3.30
2022-09-17T12:07:30.295Z,3.40
2022-09-17T12:10:35.091Z,3.50
2022-09-17T12:13:42.994Z,4.30
2022-09-17T12:16:46.864Z,3.70
2022-09-17T12:19:55.494Z,3.70
2022-09-17T12:22:58.754Z,3.90
2022-09-17T12:26:34.139Z,4.20
2022-09-17T12:29:48.083Z,4.80
2022-09-17T12:33:08.190Z,4.30
2022-09-17T12:36:27.825Z,4.10
2022-09-17T12:39:47.512Z,4.20
2022-09-17T12:43:02.742Z,4.20
2022-09-17T12:46:32.918Z,4.20
2022-09-17T12:49:43.931Z,5.10
2022-09-17T12:52:45.612Z,5.10
2022-09-17T12:55:47.395Z,4.50
2022-09-17T12:59:10.635Z,4.30
2022-09-17T13:02:20.024Z,4.40
2022-09-17T13:05:50.625Z,4.40
2022-09-17T13:09:10.991Z,4.80
2022-09-17T13:12:39.737Z,4.90
2022-09-17T13:16:13.383Z,5.40
2022-09-17T13:19:33.480Z,6.70
2022-09-17T13:22:45.441Z,7.80
2022-09-17T13:25:53.782Z,6.00
2022-09-17T13:28:55.736Z,7.10
2022-09-17T13:31:57.737Z,6.40
2022-09-17T13:35:11.598Z,6.10
2022-09-17T13:38:13.492Z,7.50
2022-09-17T13:41:21.498Z,7.20
2022-09-17T13:44:23.980Z,4.90
2022-09-17T13:47:31.609Z,4.90
2022-09-17T13:50:42.694Z,4.90
2022-09-17T13:53:52.771Z,4.50
2022-09-17T13:57:24.082Z,4.90
2022-09-17T14:01:00.940Z,5.20
2022-09-17T14:04:03.226Z,5.40
2022-09-17T14:07:24.566Z,5.90
2022-09-17T14:13:36.079Z,5.00
2022-09-17T14:16:45.870Z,5.80
2022-09-17T14:19:51.894Z,5.30
2022-09-17T14:23:03.266Z,6.30
2022-09-17T14:26:09.126Z,5.10
2022-09-17T14:29:48.819Z,4.40
2022-09-17T14:33:17.660Z,4.80
2022-09-17T14:36:21.134Z,5.40
2022-09-17T14:39:27.895Z,6.00
2022-09-17T14:42:35.243Z,4.90
2022-09-17T14:45:41.535Z,4.70
2022-09-17T14:48:43.401Z,4.80
2022-09-17T14:51:45.419Z,4.70
2022-09-17T14:54:47.161Z,4.30
2022-09-17T14:57:52.602Z,5.70
2022-09-17T15:00:54.452Z,6.80
2022-09-17T15:04:14.506Z,5.00
2022-09-17T15:07:16.320Z,4.70
2022-09-17T15:10:21.235Z,4.40
2022-09-17T15:13:28.489Z,4.80
2022-09-17T15:16:30.838Z,5.10
2022-09-17T15:19:42.108Z,10.30
2022-09-17T15:22:46.210Z,5.60
2022-09-17T15:25:51.505Z,5.20
2022-09-17T15:28:54.362Z,5.90
2022-09-17T15:31:56.282Z,5.00
2022-09-17T15:35:17.342Z,6.50
2022-09-17T15:38:26.917Z,5.60
2022-09-17T15:41:29.105Z,6.30
2022-09-17T15:44:31.848Z,6.30
2022-09-17T15:47:37.017Z,7.10
2022-09-17T15:50:53.992Z,5.90
2022-09-17T15:54:05.251Z,7.10
2022-09-17T15:57:14.358Z,8.20
2022-09-17T16:00:17.232Z,6.70
2022-09-17T16:03:40.701Z,8.00
2022-09-17T16:06:49.078Z,7.40
2022-09-17T16:09:52.419Z,6.50
2022-09-17T16:12:54.311Z,6.40
2022-09-17T16:15:56.380Z,5.90
2022-09-17T16:18:58.345Z,6.00
2022-09-17T16:22:00.110Z,6.40
2022-09-17T16:25:02.038Z,6.60
2022-09-17T16:28:09.374Z,6.20
2022-09-17T16:31:13.589Z,8.50
2022-09-17T16:34:15.394Z,8.10
2022-09-17T16:37:17.246Z,7.30
2022-09-17T16:40:20.020Z,7.50
2022-09-17T16:43:22.186Z,8.70
2022-09-17T16:46:24.049Z,7.70
2022-09-17T16:49:25.918Z,7.40
2022-09-17T16:52:27.693Z,7.10
2022-09-17T16:55:29.769Z,6.60
2022-09-17T16:58:31.658Z,6.90
2022-09-17T17:01:33.465Z,7.20
2022-09-17T17:04:35.343Z,6.70
2022-09-17T17:07:37.322Z,7.30
2022-09-17T17:10:39.373Z,9.10
2022-09-17T17:13:44.847Z,11.00
2022-09-17T17:16:46.677Z,9.60
2022-09-17T17:19:48.474Z,8.70
2022-09-17T17:22:53.080Z,7.90
2022-09-17T17:25:54.852Z,7.60
2022-09-17T17:28:56.741Z,7.50
2022-09-17T17:31:58.626Z,10.90
2022-09-17T17:35:00.498Z,10.60
2022-09-17T17:38:02.303Z,10.00
2022-09-17T17:41:06.868Z,10.20
2022-09-17T17:44:12.833Z,10.50
2022-09-17T17:47:14.786Z,9.60
2022-09-17T17:50:16.929Z,10.80
2022-09-17T17:53:18.788Z,10.60
2022-09-17T17:56:20.756Z,11.10
2022-09-17T17:59:22.765Z,10.10
2022-09-17T18:02:24.705Z,10.40
2022-09-17T18:05:26.799Z,10.30
2022-09-17T18:08:28.514Z,10.60
2022-09-17T18:11:30.579Z,10.40
2022-09-17T18:14:32.379Z,11.60
2022-09-17T18:17:36.458Z,10.80
2022-09-17T18:20:38.237Z,10.90
2022-09-17T18:23:41.620Z,11.00
2022-09-17T18:26:43.629Z,11.60
2022-09-17T18:29:45.519Z,12.10
2022-09-17T18:32:50.278Z,10.80
2022-09-17T18:35:57.065Z,11.10
2022-09-17T18:42:27.467Z,11.20
2022-09-17T18:45:29.347Z,10.90
2022-09-17T18:48:36.199Z,10.30
2022-09-17T18:51:38.742Z,11.80
2022-09-17T18:54:40.707Z,12.10
2022-09-17T18:57:42.634Z,12.30
2022-09-17T19:00:45.507Z,11.60
2022-09-17T19:03:47.519Z,10.90
2022-09-17T19:06:49.482Z,10.70
2022-09-17T19:09:51.230Z,11.70
2022-09-17T19:12:54.263Z,12.00
2022-09-17T19:15:59.743Z,12.20
2022-09-17T19:19:01.730Z,12.60
2022-09-17T19:22:03.860Z,12.50
2022-09-17T19:25:06.269Z,12.20
2022-09-17T19:28:08.571Z,11.70
2022-09-17T19:31:12.920Z,12.20
2022-09-17T19:34:14.898Z,12.00
2022-09-17T19:37:18.329Z,12.50
2022-09-17T19:40:20.492Z,12.60
2022-09-17T19:43:22.296Z,14.80
2022-09-17T19:46:25.594Z,15.00
2022-09-17T19:49:27.403Z,13.40
2022-09-17T19:52:29.155Z,13.20
2022-09-17T19:55:31.061Z,13.60
2022-09-17T19:58:32.738Z,14.00
2022-09-17T20:01:35.337Z,14.60
2022-09-17T20:04:37.280Z,15.20
2022-09-17T20:07:39.155Z,14.20
2022-09-17T20:10:40.937Z,14.10
2022-09-17T20:13:43.055Z,13.90
2022-09-17T20:16:45.276Z,14.90
2022-09-17T20:19:46.998Z,14.10
2022-09-17T20:22:51.710Z,13.70
2022-09-17T20:25:54.110Z,14.20
2022-09-17T20:28:56.493Z,14.40
2022-09-17T20:31:58.218Z,14.40
2022-09-17T20:35:00.148Z,14.70
2022-09-17T20:39:06.569Z,13.30
2022-09-17T20:41:24.926Z,14.90
2022-09-17T20:44:26.802Z,14.50
2022-09-17T20:47:28.580Z,14.50
2022-09-17T20:50:30.354Z,16.10
2022-09-17T20:53:34.075Z,16.40
2022-09-17T20:56:36.100Z,16.40
2022-09-17T21:00:04.117Z,17.10
2022-09-17T21:03:05.971Z,18.80
2022-09-17T21:06:07.930Z,18.80
2022-09-17T21:09:12.477Z,19.40
2022-09-17T21:12:14.234Z,16.80
2022-09-17T21:15:16.055Z,14.90
2022-09-17T21:18:17.819Z,13.00
2022-09-17T21:21:19.817Z,13.00
2022-09-17T21:24:21.798Z,13.70
2022-09-17T21:27:23.623Z,13.40
2022-09-17T21:30:25.894Z,13.50
2022-09-17T21:33:27.706Z,14.30
2022-09-17T21:36:32.219Z,13.90
2022-09-17T21:39:35.786Z,14.00
2022-09-17T21:42:38.957Z,14.10
2022-09-17T21:45:40.899Z,14.10
2022-09-17T21:48:47.847Z,13.50
2022-09-17T21:51:49.835Z,13.90
2022-09-17T21:54:51.748Z,13.70
2022-09-17T21:57:53.476Z,13.60
2022-09-17T22:00:55.199Z,12.80
2022-09-17T22:03:57.933Z,13.10
2022-09-17T22:07:00.669Z,13.90
2022-09-17T22:10:02.480Z,15.30
2022-09-17T22:13:04.751Z,12.40
2022-09-17T22:16:09.145Z,11.20
2022-09-17T22:19:13.875Z,10.50
2022-09-17T22:22:15.715Z,10.70
2022-09-17T22:25:17.531Z,11.80
2022-09-17T22:28:21.636Z,12.80
2022-09-17T22:31:23.845Z,11.50
2022-09-17T22:34:26.642Z,12.00
2022-09-17T22:37:29.207Z,12.90
2022-09-17T22:40:31.068Z,12.40
2022-09-17T22:43:33.186Z,12.80
2022-09-17T22:46:39.521Z,12.80
2022-09-17T22:49:41.623Z,12.40
2022-09-17T22:52:43.318Z,12.70
2022-09-17T22:55:54.866Z,11.40
2022-09-17T22:58:57.993Z,10.70
2022-09-17T23:01:59.786Z,10.00
2022-09-17T23:05:21.411Z,8.80
2022-09-17T23:08:38.033Z,8.90
2022-09-17T23:11:40.159Z,8.50
2022-09-17T23:14:41.930Z,9.50
2022-09-17T23:17:43.823Z,8.70
2022-09-17T23:21:10.534Z,8.10
2022-09-17T23:24:18.215Z,7.80
2022-09-17T23:27:20.091Z,7.70
2022-09-17T23:30:24.264Z,7.70
2022-09-17T23:33:26.191Z,7.90
2022-09-17T23:36:30.129Z,7.20
2022-09-17T23:39:32.137Z,7.40
2022-09-17T23:42:37.066Z,6.90
2022-09-17T23:45:38.906Z,6.80
2022-09-17T23:48:41.242Z,6.50
2022-09-17T23:51:43.175Z,6.40
2022-09-17T23:54:45.144Z,5.80
2022-09-17T23:57:47.136Z,5.40
